TFM - Tactical Decision Aid
ID: Runway Winds: CIG/VIS Threshold:

KSAN - San Diego Intl Arpt, CA, US

Updated at: 2154 UTC 23 Apr 2019
Latest TAF at: 2039 UTC 23 Apr 2019

TAF Board

Time2051Z 23/22Z 23/23Z 24/00Z 24/01Z 24/02Z 24/03Z 24/04Z 24/05Z 24/06Z 24/07Z 24/08Z 24/09Z 24/10Z>>
Type OBS PRVL PRVL PRVL PRVL PRVL PRVL PRVL PRVL PRVL PRVL PRVL PRVL PRVL
VIS 10 >6 >6 >6 >6 >6 >6 >6 >6 >6 >6 >6 >6 >6
CIG -- -- -- -- -- -- -- -- -- -- -- 11 11 11
Cover SCT FEW FEW FEW FEW SCT SCT SCT SCT SCT SCT OVC OVC OVC
FltCat VFR VFR VFR VFR VFR VFR VFR VFR VFR VFR VFR MVFR MVFR MVFR
WX -- -- -- -- -- -- -- -- -- -- -- -- -- --
WDir 250 270 270 270 270 VRB VRB VRB VRB VRB VRB VRB VRB VRB
WSpd 8 9 9 9 9 4 4 4 4 4 4 4 4 4
WGst -- -- -- -- -- -- -- -- -- -- -- -- -- --

TDA Impact Legend

  None Marginal Slight Moderate High
Visibility (sm) >5 3≤X≤5 2≤X<3 1≤X<2 <1
Ceiling (100 ft) >30 10≤X≤30 8≤X<10 4≤X<8 <4
Wind Speed (kt) <15 15≤X<25 25≤X<30 ≥30
Wind Gust (kt) <15 15≤X<25 25≤X<35 ≥35
Weather No Wx Reported VCTS -TS,-FZRA TS,FZRA +TS,+FZRA
TAF
KSAN 232039Z 2321/2424 21007KT P6SM SCT018
  FM232200 27009KT P6SM FEW015
  FM240200 VRB04KT P6SM SCT012
  FM240800 VRB04KT P6SM OVC011
  FM241600 22005KT P6SM SCT014
  FM242200 25008KT P6SM FEW015


METAR
KSAN 232051Z 25008KT 230V300 10SM SCT018 19/12 A2997 RMK AO2 SLP149 T01940122 58008
KSAN 231951Z 22010KT 10SM SCT018 SCT040 19/13 A2998 RMK AO2 SLP151 T01890128
KSAN 231851Z 23008KT 10SM FEW020 FEW250 18/12 A2999 RMK AO2 SLP155 T01830122

Radar Display
Forecast Discussion